createdAt,value
2022-07-25T00:00:41.811Z,23.18
2022-07-25T00:05:41.696Z,23.30
2022-07-25T00:10:41.707Z,23.40
2022-07-25T00:15:41.773Z,23.48
2022-07-25T00:20:41.826Z,23.56
2022-07-25T00:25:41.766Z,23.64
2022-07-25T00:30:41.709Z,23.71
2022-07-25T00:35:41.728Z,23.74
2022-07-25T00:40:41.814Z,23.76
2022-07-25T00:45:44.787Z,23.79
2022-07-25T00:50:44.710Z,23.79
2022-07-25T00:55:44.777Z,23.75
2022-07-25T01:00:44.710Z,23.67
2022-07-25T01:05:44.837Z,23.62
2022-07-25T01:10:44.866Z,23.60
2022-07-25T01:15:44.784Z,23.59
2022-07-25T01:20:44.750Z,23.57
2022-07-25T01:25:45.359Z,23.52
2022-07-25T01:30:45.832Z,23.47
2022-07-25T01:35:45.742Z,23.41
2022-07-25T01:40:45.789Z,23.34
2022-07-25T01:45:45.785Z,23.27
2022-07-25T01:50:45.762Z,23.20
2022-07-25T01:55:45.784Z,23.14
2022-07-25T02:00:45.798Z,23.11
2022-07-25T02:05:45.732Z,23.09
2022-07-25T02:10:45.796Z,23.08
2022-07-25T02:15:45.794Z,23.05
2022-07-25T02:20:45.807Z,22.98
2022-07-25T02:25:45.775Z,22.90
2022-07-25T02:30:45.876Z,22.80
2022-07-25T02:35:45.799Z,22.71
2022-07-25T02:40:45.855Z,22.64
2022-07-25T02:45:45.926Z,22.60
2022-07-25T02:50:45.789Z,22.56
2022-07-25T02:55:45.802Z,22.50
2022-07-25T03:00:46.307Z,22.43
2022-07-25T03:05:45.805Z,22.37
2022-07-25T03:10:45.807Z,22.33
2022-07-25T03:15:45.890Z,22.28
2022-07-25T03:20:45.913Z,22.23
2022-07-25T03:25:45.932Z,22.20
2022-07-25T03:30:45.883Z,22.18
2022-07-25T03:35:45.918Z,22.17
2022-07-25T03:40:45.958Z,22.17
2022-07-25T03:45:46.156Z,22.20
2022-07-25T03:50:45.898Z,22.28
2022-07-25T03:55:45.934Z,22.36
2022-07-25T04:00:47.422Z,22.45
2022-07-25T04:05:47.975Z,22.53
2022-07-25T04:10:47.886Z,22.62
2022-07-25T04:15:47.928Z,22.70
2022-07-25T04:20:47.964Z,22.81
2022-07-25T04:25:50.934Z,22.99
2022-07-25T04:30:50.897Z,23.23
2022-07-25T04:35:50.882Z,23.52
2022-07-25T04:40:50.881Z,23.87
2022-07-25T04:45:51.010Z,24.24
2022-07-25T04:50:50.915Z,24.60
2022-07-25T04:55:50.924Z,24.91
2022-07-25T05:00:50.979Z,25.19
2022-07-25T05:05:50.922Z,25.46
2022-07-25T05:10:50.910Z,25.72
2022-07-25T05:15:53.077Z,25.90
2022-07-25T05:20:52.924Z,25.96
2022-07-25T05:25:53.029Z,26.03
2022-07-25T05:30:52.989Z,26.16
2022-07-25T05:35:52.975Z,26.28
2022-07-25T05:40:53.125Z,26.35
2022-07-25T05:45:53.033Z,26.41
2022-07-25T05:50:52.978Z,26.45
2022-07-25T05:55:53.027Z,26.50
2022-07-25T06:00:53.024Z,26.64
2022-07-25T06:05:52.973Z,27.01
2022-07-25T06:10:53.051Z,27.56
2022-07-25T06:15:53.050Z,28.15
2022-07-25T06:20:52.976Z,28.73
2022-07-25T06:25:52.990Z,29.34
2022-07-25T06:30:52.981Z,29.91
2022-07-25T06:35:53.023Z,30.36
2022-07-25T06:40:52.981Z,30.68
2022-07-25T06:45:53.125Z,31.50
2022-07-25T06:50:53.028Z,32.74
2022-07-25T06:55:56.030Z,33.78
2022-07-25T07:00:56.231Z,34.97
2022-07-25T07:05:56.122Z,36.36
2022-07-25T07:10:56.159Z,37.60
2022-07-25T07:15:56.224Z,38.72
2022-07-25T07:20:56.087Z,39.73
2022-07-25T07:25:56.032Z,40.40
2022-07-25T07:31:15.713Z,41.36
2022-07-25T07:35:58.148Z,42.70
2022-07-25T07:40:58.503Z,43.19
2022-07-25T07:46:00.427Z,42.68
2022-07-25T07:51:03.187Z,42.08
2022-07-25T07:56:03.104Z,41.73
2022-07-25T08:01:03.151Z,41.72
2022-07-25T08:06:03.056Z,41.79
2022-07-25T08:11:03.082Z,42.43
2022-07-25T08:16:03.539Z,43.18
2022-07-25T08:21:05.698Z,43.10
2022-07-25T08:26:05.206Z,42.68
2022-07-25T08:31:05.234Z,42.37
2022-07-25T08:36:05.105Z,41.48
2022-07-25T08:41:05.553Z,40.28
2022-07-25T08:46:05.258Z,38.89
2022-07-25T08:51:05.099Z,37.63
2022-07-25T08:56:11.212Z,36.77
2022-07-25T09:01:07.539Z,36.25
2022-07-25T09:06:07.139Z,35.76
2022-07-25T09:11:07.132Z,36.47
2022-07-25T09:16:07.244Z,39.93
2022-07-25T09:21:08.372Z,44.55
2022-07-25T09:26:08.283Z,48.25
2022-07-25T09:31:09.334Z,49.23
2022-07-25T09:36:09.228Z,48.79
2022-07-25T09:41:09.177Z,49.46
2022-07-25T09:46:09.296Z,48.52
2022-07-25T09:51:09.239Z,46.22
2022-07-25T09:56:09.367Z,44.60
2022-07-25T10:01:09.255Z,42.75
2022-07-25T10:06:09.220Z,40.65
2022-07-25T10:11:09.307Z,38.50
2022-07-25T10:16:09.316Z,36.56
2022-07-25T10:21:24.423Z,35.02
2022-07-25T10:26:12.844Z,33.82
2022-07-25T10:31:13.356Z,32.86
2022-07-25T10:36:13.237Z,32.03
2022-07-25T10:41:13.196Z,31.29
2022-07-25T10:46:14.058Z,30.91
2022-07-25T10:51:14.271Z,31.43
2022-07-25T10:56:14.230Z,32.66
2022-07-25T11:01:14.435Z,33.79
2022-07-25T11:06:14.822Z,34.61
2022-07-25T11:11:14.269Z,35.16
2022-07-25T11:16:14.344Z,35.32
2022-07-25T11:21:14.263Z,35.22
2022-07-25T11:26:14.272Z,34.95
2022-07-25T11:31:14.559Z,34.60
2022-07-25T11:36:14.477Z,34.51
2022-07-25T11:41:15.315Z,34.59
2022-07-25T11:46:17.360Z,34.63
2022-07-25T11:51:18.919Z,34.53
2022-07-25T11:56:41.350Z,34.23
2022-07-25T12:01:21.315Z,34.02
2022-07-25T12:06:21.307Z,34.01
2022-07-25T12:11:21.317Z,34.11
2022-07-25T12:16:21.424Z,34.21
2022-07-25T12:21:21.431Z,34.38
2022-07-25T12:26:21.334Z,34.47
2022-07-25T12:31:21.686Z,34.17
2022-07-25T12:36:21.396Z,33.70
2022-07-25T12:41:23.200Z,33.55
2022-07-25T12:46:23.545Z,33.69
2022-07-25T12:51:23.372Z,33.76
2022-07-25T12:56:23.392Z,33.65
2022-07-25T13:01:23.452Z,33.40
2022-07-25T13:06:23.392Z,32.94
2022-07-25T13:11:23.530Z,32.44
2022-07-25T13:16:23.481Z,32.14
2022-07-25T13:21:24.334Z,32.06
2022-07-25T13:26:25.400Z,32.26
2022-07-25T13:31:25.491Z,32.87
2022-07-25T13:36:25.519Z,33.46
2022-07-25T13:41:25.483Z,33.70
2022-07-25T13:46:25.499Z,33.55
2022-07-25T13:51:25.423Z,33.10
2022-07-25T13:56:25.418Z,32.54
2022-07-25T14:01:27.604Z,31.92
2022-07-25T14:06:27.732Z,31.46
2022-07-25T14:11:30.622Z,31.45
2022-07-25T14:16:29.578Z,31.70
2022-07-25T14:21:29.419Z,31.80
2022-07-25T14:26:30.642Z,31.66
2022-07-25T14:31:31.627Z,31.32
2022-07-25T14:36:31.441Z,31.07
2022-07-25T14:41:31.622Z,31.05
2022-07-25T14:46:31.678Z,31.07
2022-07-25T14:51:32.458Z,31.00
2022-07-25T14:56:32.542Z,30.97
2022-07-25T15:01:32.665Z,31.10
2022-07-25T15:06:32.470Z,31.28
2022-07-25T15:11:32.548Z,31.38
2022-07-25T15:16:32.659Z,31.33
2022-07-25T15:21:32.479Z,31.07
2022-07-25T15:26:32.812Z,30.76
2022-07-25T15:31:32.594Z,30.43
2022-07-25T15:36:32.499Z,29.99
2022-07-25T15:41:32.514Z,29.58
2022-07-25T15:46:33.447Z,29.19
2022-07-25T15:51:33.623Z,28.87
2022-07-25T15:56:33.526Z,28.58
2022-07-25T16:01:33.589Z,28.26
2022-07-25T16:06:33.854Z,28.08
2022-07-25T16:11:35.227Z,28.22
2022-07-25T16:16:35.644Z,28.65
2022-07-25T16:21:35.535Z,29.10
2022-07-25T16:26:35.539Z,29.34
2022-07-25T16:31:35.659Z,29.41
2022-07-25T16:36:35.702Z,29.28
2022-07-25T16:41:35.577Z,29.07
2022-07-25T16:46:35.878Z,28.76
2022-07-25T16:51:37.287Z,28.54
2022-07-25T16:56:37.875Z,28.39
2022-07-25T17:01:37.609Z,28.08
2022-07-25T17:06:37.582Z,27.63
2022-07-25T17:11:37.579Z,27.17
2022-07-25T17:16:37.751Z,26.78
2022-07-25T17:21:37.636Z,26.49
2022-07-25T17:26:37.687Z,26.31
2022-07-25T17:31:37.704Z,26.19
2022-07-25T17:36:38.060Z,26.15
2022-07-25T17:41:37.707Z,26.21
2022-07-25T17:46:37.730Z,26.34
2022-07-25T17:51:37.622Z,26.41
2022-07-25T17:56:37.647Z,26.48
2022-07-25T18:01:39.553Z,26.58
2022-07-25T18:06:39.645Z,26.68
2022-07-25T18:11:41.108Z,26.77
2022-07-25T18:16:41.113Z,26.79
2022-07-25T18:21:40.767Z,26.83
2022-07-25T18:26:40.618Z,26.81
2022-07-25T18:31:40.684Z,26.64
2022-07-25T18:36:40.795Z,26.44
2022-07-25T18:41:40.736Z,26.21
2022-07-25T18:46:41.106Z,25.92
2022-07-25T18:51:40.894Z,25.63
2022-07-25T18:56:40.693Z,25.39
2022-07-25T19:01:40.813Z,25.20
2022-07-25T19:06:40.774Z,25.01
2022-07-25T19:11:42.321Z,24.78
2022-07-25T19:16:43.007Z,24.54
2022-07-25T19:21:44.657Z,24.29
2022-07-25T19:26:48.398Z,24.05
2022-07-25T19:31:46.788Z,23.82
2022-07-25T19:36:46.707Z,23.61
2022-07-25T19:41:47.326Z,23.42
2022-07-25T19:46:49.085Z,23.26
2022-07-25T19:51:48.808Z,23.13
2022-07-25T19:56:48.832Z,23.01
2022-07-25T20:01:49.806Z,22.93
2022-07-25T20:06:50.165Z,22.85
2022-07-25T20:11:49.765Z,22.73
2022-07-25T20:16:49.985Z,22.61
2022-07-25T20:21:49.789Z,22.50
2022-07-25T20:26:49.786Z,22.41
2022-07-25T20:31:51.631Z,22.32
2022-07-25T20:36:52.248Z,22.25
2022-07-25T20:41:51.759Z,22.24
2022-07-25T20:46:51.894Z,22.27
2022-07-25T20:51:54.651Z,22.27
2022-07-25T20:56:53.845Z,22.24
2022-07-25T21:01:53.844Z,22.19
2022-07-25T21:06:56.591Z,22.11
2022-07-25T21:11:56.769Z,21.99
2022-07-25T21:16:56.842Z,21.89
2022-07-25T21:21:56.908Z,21.88
2022-07-25T21:26:56.956Z,21.94
2022-07-25T21:31:56.860Z,22.03
2022-07-25T21:36:56.881Z,22.13
2022-07-25T21:41:56.794Z,22.21
2022-07-25T21:46:56.816Z,22.28
2022-07-25T21:51:56.894Z,22.33
2022-07-25T21:56:57.898Z,22.38
2022-07-25T22:02:00.912Z,22.42
2022-07-25T22:07:00.894Z,22.45
2022-07-25T22:12:00.916Z,22.48
2022-07-25T22:17:00.911Z,22.52
2022-07-25T22:22:00.853Z,22.56
2022-07-25T22:27:00.983Z,22.56
2022-07-25T22:32:04.002Z,22.52
2022-07-25T22:37:03.829Z,22.46
2022-07-25T22:42:03.896Z,22.44
2022-07-25T22:47:03.971Z,22.43
2022-07-25T22:52:03.901Z,22.43
2022-07-25T22:57:03.918Z,22.42
2022-07-25T23:02:03.934Z,22.41
2022-07-25T23:07:03.842Z,22.39
2022-07-25T23:12:03.909Z,22.32
2022-07-25T23:17:20.084Z,22.21
2022-07-25T23:22:19.960Z,22.03
2022-07-25T23:27:19.940Z,21.81
2022-07-25T23:32:19.930Z,21.62
2022-07-25T23:37:19.975Z,21.46
2022-07-25T23:42:19.916Z,21.36
2022-07-25T23:47:25.629Z,21.33
2022-07-25T23:52:22.022Z,21.32
2022-07-25T23:57:22.003Z,21.32
